Terminal Aerodrome Forecast
Issued by NWS

Home | Current Version | Previous Version | Text Only | Print | Product List | Glossary On
Versions: 1 2 3 4 5 6 7 8 9 10 11 12 13 14 15
000
FTUS42 TJSJ 252300
TAFJBQ
TAF
TJBQ 252322Z 2600/2624 VRB04KT P6SM FEW030
     FM261400 06007KT P6SM SCT030
     FM261800 08010KT P6SM VCSH SCT025 BKN040
     FM262300 09008KT P6SM SCT040
      AMD NOT SKED 2602/2611=

USA.gov is the U.S. government's official web portal to all federal, state and local government web resources and services.